Time;durP1;ratioP1;P1;durP2;ratioP2;P2;SDS_P1;SDS_P2;PMS_P1;PMS_P2;Temp;Humidity;BMP_temperature;BMP_pressure;BME280_temperature;BME280_humidity;BME280_pressure;Samples;Min_cycle;Max_cycle;Signal;HPM_P1;HPM_P2
2023/01/18 11:43:59;;;;;;;18.20;9.13;;;4.70;99.90;;;;;;6331604;27;20354;-80
2023/01/18 11:47:08;;;;;;;13.45;7.70;;;4.70;99.90;;;;;;6309749;28;20045;-79
2023/01/18 11:50:27;;;;;;;8.80;6.70;;;4.80;99.90;;;;;;6295341;28;20053;-80
2023/01/18 11:53:42;;;;;;;12.88;7.78;;;4.90;99.90;;;;;;6294871;28;20039;-79
2023/01/18 11:56:47;;;;;;;8.23;6.20;;;5.20;99.90;;;;;;6295109;28;20506;-80
2023/01/18 11:59:50;;;;;;;7.60;5.13;;;5.30;99.90;;;;;;6283032;28;20048;-80
2023/01/18 12:03:25;;;;;;;13.65;5.68;;;5.40;99.90;;;;;;6270059;28;20049;-81
2023/01/18 12:06:41;;;;;;;10.98;5.55;;;5.60;99.90;;;;;;6275761;28;20049;-80
2023/01/18 12:09:51;;;;;;;11.18;6.05;;;5.60;99.90;;;;;;6294735;28;20040;-81
2023/01/18 12:13:11;;;;;;;7.68;5.78;;;5.60;99.90;;;;;;6296209;28;20048;-81
2023/01/18 12:16:19;;;;;;;9.73;7.00;;;5.60;99.90;;;;;;6295429;28;20048;-80
2023/01/18 12:19:46;;;;;;;6.68;4.05;;;5.60;99.90;;;;;;6295774;28;20619;-81
2023/01/18 12:23:10;;;;;;;5.88;4.82;;;5.50;99.90;;;;;;6296778;28;20041;-79
2023/01/18 12:26:26;;;;;;;16.88;9.35;;;5.40;99.90;;;;;;6296559;28;20051;-82
2023/01/18 12:30:13;;;;;;;10.52;5.13;;;5.40;99.90;;;;;;6294764;28;20056;-79
2023/01/18 12:33:29;;;;;;;6.80;4.05;;;5.40;99.90;;;;;;6272237;28;20060;-80
2023/01/18 12:37:02;;;;;;;23.88;5.55;;;5.30;99.90;;;;;;6278804;28;20041;-80
2023/01/18 12:40:21;;;;;;;9.95;5.82;;;5.30;99.90;;;;;;6282013;28;20128;-79
2023/01/18 12:43:28;;;;;;;;;;;5.30;99.90;;;;;;6296098;28;20044;-80
2023/01/18 12:46:38;;;;;;;18.17;13.32;;;5.40;99.90;;;;;;6294280;28;19920;-80
2023/01/18 12:49:45;;;;;;;32.72;26.10;;;5.50;99.90;;;;;;6273750;28;20049;-80
2023/01/18 12:52:51;;;;;;;10.35;8.40;;;5.60;99.90;;;;;;6290222;28;20045;-80
2023/01/18 12:55:55;;;;;;;7.07;5.55;;;5.60;99.90;;;;;;6279994;28;20052;-80
2023/01/18 12:58:59;;;;;;;6.63;4.72;;;5.60;99.90;;;;;;6279356;28;20135;-80
2023/01/18 13:02:10;;;;;;;4.13;3.00;;;5.70;99.90;;;;;;6278533;28;20053;-80
2023/01/18 13:05:18;;;;;;;10.43;4.47;;;5.70;99.90;;;;;;6278699;28;20051;-80
2023/01/18 13:08:29;;;;;;;5.80;2.65;;;5.80;99.90;;;;;;6278689;28;20044;-80
2023/01/18 13:11:34;;;;;;;3.60;3.00;;;5.90;99.90;;;;;;6280102;28;20415;-79
2023/01/18 13:14:42;;;;;;;14.55;13.15;;;6.10;99.90;;;;;;6284690;28;20052;-80
2023/01/18 13:17:52;;;;;;;9.18;4.63;;;6.60;99.90;;;;;;6286420;28;20045;-80
2023/01/18 13:21:09;;;;;;;7.03;4.05;;;7.20;99.90;;;;;;6287197;28;20546;-79
2023/01/18 13:24:21;;;;;;;3.92;3.15;;;7.60;99.90;;;;;;6283536;28;20052;-79
2023/01/18 13:27:23;;;;;;;5.93;3.42;;;7.50;99.90;;;;;;6284045;28;20057;-81
2023/01/18 13:30:25;;;;;;;4.07;3.42;;;7.70;99.90;;;;;;6276316;28;20053;-81
2023/01/18 13:33:30;;;;;;;8.43;4.45;;;7.50;99.90;;;;;;6279744;28;20057;-81
2023/01/18 13:36:44;;;;;;;6.18;3.97;;;7.40;99.90;;;;;;6279519;28;20045;-80
2023/01/18 13:39:47;;;;;;;11.18;3.95;;;7.40;99.90;;;;;;6274907;28;20044;-81
2023/01/18 13:42:50;;;;;;;6.13;4.40;;;7.30;99.90;;;;;;6276120;28;20036;-81
2023/01/18 13:46:02;;;;;;;7.32;3.35;;;7.00;99.90;;;;;;6275389;28;20048;-81
2023/01/18 13:49:25;;;;;;;6.55;3.00;;;6.80;99.90;;;;;;6277829;28;20052;-81
2023/01/18 13:52:34;;;;;;;3.00;2.55;;;7.20;99.90;;;;;;6253982;28;20129;-81
2023/01/18 13:55:36;;;;;;;4.60;2.00;;;7.70;99.90;;;;;;6259559;28;20052;-81
2023/01/18 13:58:39;;;;;;;3.90;2.30;;;7.90;99.90;;;;;;6278582;28;20036;-81
2023/01/18 14:01:43;;;;;;;4.43;2.20;;;7.90;99.90;;;;;;6276277;28;20044;-80
2023/01/18 14:04:45;;;;;;;4.65;1.85;;;8.00;99.90;;;;;;6274373;28;20506;-80
2023/01/18 14:07:51;;;;;;;3.33;2.13;;;8.20;99.90;;;;;;6277071;28;20081;-81
2023/01/18 14:10:58;;;;;;;3.80;2.13;;;8.40;99.90;;;;;;6276379;28;20359;-80
2023/01/18 14:14:04;;;;;;;4.07;2.17;;;8.40;99.90;;;;;;6278601;28;20036;-81
2023/01/18 14:17:12;;;;;;;2.28;2.03;;;8.60;99.90;;;;;;6275353;28;20048;-81
2023/01/18 14:20:41;;;;;;;4.55;4.15;;;8.70;99.90;;;;;;6276161;28;20045;-81
2023/01/18 14:24:17;;;;;;;4.45;2.88;;;8.90;99.90;;;;;;6279049;28;20127;-81
2023/01/18 14:27:23;;;;;;;11.93;3.13;;;8.60;99.90;;;;;;6276936;28;20041;-81
2023/01/18 14:30:29;;;;;;;4.10;2.45;;;8.30;99.90;;;;;;6276795;28;20059;-81
2023/01/18 14:33:34;;;;;;;3.53;2.45;;;8.20;99.90;;;;;;6278647;28;20041;-81
2023/01/18 14:36:36;;;;;;;3.95;2.30;;;8.00;99.90;;;;;;6277179;28;20045;-81
2023/01/18 14:39:39;;;;;;;7.65;2.20;;;8.10;99.90;;;;;;6275307;28;20929;-81
2023/01/18 14:42:47;;;;;;;5.45;2.90;;;8.10;99.90;;;;;;6280924;28;20043;-82
2023/01/18 14:45:55;;;;;;;8.38;3.55;;;7.80;99.90;;;;;;6280117;28;20059;-81
2023/01/18 14:49:00;;;;;;;194.38;78.15;;;7.60;99.90;;;;;;6276173;28;20049;-81
2023/01/18 14:52:03;;;;;;;83.15;35.13;;;7.30;99.90;;;;;;6276072;28;20049;-81
2023/01/18 14:55:23;;;;;;;136.65;56.10;;;6.90;99.90;;;;;;6278127;28;20061;-81
2023/01/18 14:58:27;;;;;;;61.70;27.67;;;6.60;99.90;;;;;;6275021;28;20053;-81
2023/01/18 15:01:31;;;;;;;115.22;56.53;;;6.30;99.90;;;;;;6275195;28;20059;-81
2023/01/18 15:04:37;;;;;;;12.60;7.00;;;6.00;99.90;;;;;;6274321;28;20045;-80
2023/01/18 15:07:40;;;;;;;9.25;5.45;;;5.70;99.90;;;;;;6272746;28;20139;-79
2023/01/18 15:10:44;;;;;;;7.78;6.00;;;5.60;99.90;;;;;;6274108;28;20055;-78
2023/01/18 15:13:50;;;;;;;27.42;15.63;;;5.50;99.90;;;;;;6275919;28;20045;-79
2023/01/18 15:16:54;;;;;;;3.38;2.97;;;5.50;99.90;;;;;;6274608;28;20146;-81
2023/01/18 15:19:59;;;;;;;7.00;2.40;;;5.20;99.90;;;;;;6277032;28;20072;-81
2023/01/18 15:23:01;;;;;;;6.47;3.58;;;4.70;99.90;;;;;;6275762;28;20108;-81
2023/01/18 15:26:05;;;;;;;7.78;4.55;;;4.50;99.90;;;;;;6278931;28;20049;-80
2023/01/18 15:29:20;;;;;;;3.95;3.58;;;4.30;99.90;;;;;;6277082;28;20576;-80
2023/01/18 15:32:23;;;;;;;5.30;3.08;;;4.00;99.90;;;;;;6277678;28;20047;-81
2023/01/18 15:35:29;;;;;;;9.85;3.80;;;3.90;99.90;;;;;;6278333;28;20596;-80
2023/01/18 15:38:31;;;;;;;3.95;3.13;;;3.60;99.90;;;;;;6270477;28;20060;-80
2023/01/18 15:41:34;;;;;;;6.13;4.47;;;3.40;99.90;;;;;;6278939;28;20135;-81
2023/01/18 15:44:41;;;;;;;8.95;5.30;;;3.30;99.90;;;;;;6276606;28;20053;-81
2023/01/18 15:47:48;;;;;;;6.25;5.20;;;3.00;99.90;;;;;;6279484;28;20506;-81
2023/01/18 15:50:51;;;;;;;6.78;5.28;;;2.90;99.90;;;;;;6278987;28;20045;-80
2023/01/18 15:53:55;;;;;;;7.22;4.95;;;2.70;99.90;;;;;;6278346;28;20041;-80
2023/01/18 15:57:11;;;;;;;8.02;5.90;;;2.60;99.90;;;;;;6279556;28;20532;-81
2023/01/18 16:00:27;;;;;;;6.22;5.13;;;2.40;99.90;;;;;;6271566;28;20049;-78
2023/01/18 16:03:32;;;;;;;5.75;4.65;;;2.30;99.90;;;;;;6277550;28;20041;-79
2023/01/18 16:06:36;;;;;;;6.88;4.97;;;2.20;99.90;;;;;;6277767;28;20049;-79
2023/01/18 16:09:39;;;;;;;10.07;4.57;;;2.00;99.90;;;;;;6274527;28;20044;-79
2023/01/18 16:12:43;;;;;;;7.95;5.57;;;1.80;99.90;;;;;;6274024;28;20499;-78
2023/01/18 16:15:45;;;;;;;16.45;7.18;;;1.70;99.90;;;;;;6276730;28;20041;-78
2023/01/18 16:18:50;;;;;;;12.55;8.25;;;1.60;99.90;;;;;;6275925;28;20045;-78
2023/01/18 16:21:57;;;;;;;10.00;7.70;;;1.50;99.90;;;;;;6277757;28;20111;-78
2023/01/18 16:25:02;;;;;;;13.98;8.57;;;1.40;99.90;;;;;;6275312;28;20132;-78
2023/01/18 16:28:05;;;;;;;11.23;7.68;;;1.40;99.90;;;;;;6276803;28;20049;-79
2023/01/18 16:31:07;;;;;;;12.60;8.82;;;1.30;99.90;;;;;;6281856;28;20053;-77
2023/01/18 16:34:24;;;;;;;11.65;8.65;;;1.30;99.90;;;;;;6282753;28;20048;-77
2023/01/18 16:37:26;;;;;;;10.70;7.88;;;1.20;99.90;;;;;;6277274;28;20041;-77
2023/01/18 16:40:28;;;;;;;13.32;8.23;;;1.20;99.90;;;;;;6259578;28;20308;-77
2023/01/18 16:43:34;;;;;;;12.38;6.97;;;1.20;99.90;;;;;;6268204;28;20076;-78
2023/01/18 16:46:36;;;;;;;16.52;9.95;;;1.10;99.90;;;;;;6283673;28;20052;-78
2023/01/18 16:49:39;;;;;;;13.93;8.57;;;1.00;99.90;;;;;;6279227;28;20581;-78
2023/01/18 16:52:41;;;;;;;11.50;8.50;;;1.00;99.90;;;;;;6282757;28;20440;-78
2023/01/18 16:55:43;;;;;;;13.05;11.20;;;0.90;99.90;;;;;;6279908;28;20124;-78
2023/01/18 16:58:46;;;;;;;16.17;9.88;;;0.90;99.90;;;;;;6278924;28;20521;-79
2023/01/18 17:01:49;;;;;;;20.65;11.55;;;0.80;99.90;;;;;;6282307;28;20057;-78
2023/01/18 17:04:51;;;;;;;21.58;9.85;;;0.80;99.90;;;;;;6281897;28;20059;-79
2023/01/18 17:07:52;;;;;;;23.30;13.07;;;0.70;99.90;;;;;;6281829;28;20095;-79
2023/01/18 17:10:54;;;;;;;16.73;11.32;;;1.30;99.90;;;;;;6284719;28;20049;-79
2023/01/18 17:13:57;;;;;;;17.80;12.00;;;1.20;99.90;;;;;;6284191;28;20049;-78
2023/01/18 17:16:59;;;;;;;16.45;9.98;;;1.00;99.90;;;;;;6280051;28;20060;-78
2023/01/18 17:20:01;;;;;;;18.65;10.30;;;0.80;99.90;;;;;;6284022;28;20056;-79
2023/01/18 17:23:03;;;;;;;14.07;10.18;;;0.70;99.90;;;;;;6282854;28;20501;-79
2023/01/18 17:26:05;;;;;;;20.58;10.63;;;0.60;99.90;;;;;;6279283;28;20049;-79
2023/01/18 17:29:12;;;;;;;17.80;12.40;;;0.50;99.90;;;;;;6279268;28;20045;-79
2023/01/18 17:32:15;;;;;;;16.92;10.98;;;0.40;99.90;;;;;;6264182;28;20049;-78
2023/01/18 17:35:20;;;;;;;15.85;10.88;;;0.40;99.90;;;;;;6256710;28;20056;-82
2023/01/18 17:38:22;;;;;;;18.10;11.07;;;0.30;99.90;;;;;;6257883;28;20341;-80
2023/01/18 17:41:26;;;;;;;15.90;10.10;;;0.20;99.90;;;;;;6282379;28;20048;-79
2023/01/18 17:44:30;;;;;;;20.97;12.23;;;0.20;99.90;;;;;;6280929;28;20507;-79
2023/01/18 17:47:33;;;;;;;13.73;10.60;;;0.10;99.90;;;;;;6284154;28;20056;-79
2023/01/18 17:50:35;;;;;;;21.80;13.17;;;0.10;99.90;;;;;;6273480;28;20068;-78
2023/01/18 17:53:37;;;;;;;18.30;12.90;;;0.10;99.90;;;;;;6258987;28;20056;-79
2023/01/18 17:56:39;;;;;;;17.43;11.77;;;0.10;99.90;;;;;;6277478;28;20136;-80
2023/01/18 17:59:42;;;;;;;16.60;11.03;;;0.10;99.90;;;;;;6278396;28;20462;-78
2023/01/18 18:02:45;;;;;;;18.63;12.23;;;0.10;99.90;;;;;;6281897;28;20049;-79
2023/01/18 18:05:46;;;;;;;20.13;13.57;;;0.10;99.90;;;;;;6289500;28;20083;-79
2023/01/18 18:08:48;;;;;;;25.40;12.87;;;0.00;99.90;;;;;;6265246;28;20586;-79
2023/01/18 18:11:50;;;;;;;29.57;11.80;;;0.00;99.90;;;;;;6253805;28;20517;-79
2023/01/18 18:14:54;;;;;;;20.27;13.47;;;0.00;99.90;;;;;;6254055;28;20060;-80
2023/01/18 18:17:56;;;;;;;18.53;13.27;;;0.00;99.90;;;;;;6252633;28;20056;-78
2023/01/18 18:20:59;;;;;;;22.97;14.30;;;0.00;99.90;;;;;;6278923;28;20049;-79
2023/01/18 18:24:00;;;;;;;25.03;14.93;;;0.00;99.90;;;;;;6285206;28;20037;-79
2023/01/18 18:27:02;;;;;;;39.03;17.77;;;0.00;99.90;;;;;;6282514;28;20053;-79
2023/01/18 18:30:06;;;;;;;25.37;14.10;;;0.10;99.90;;;;;;6281614;28;20532;-79
2023/01/18 18:33:08;;;;;;;22.60;15.20;;;0.00;99.90;;;;;;6283883;28;20055;-79
2023/01/18 18:36:10;;;;;;;29.80;13.83;;;0.10;99.90;;;;;;6282523;28;20084;-79
2023/01/18 18:39:11;;;;;;;22.70;15.47;;;0.10;99.90;;;;;;6281435;28;20049;-79
2023/01/18 18:42:13;;;;;;;18.27;12.33;;;0.10;99.90;;;;;;6281557;28;20091;-79
2023/01/18 18:45:16;;;;;;;21.87;13.27;;;0.20;99.90;;;;;;6282916;28;20049;-78
2023/01/18 18:48:18;;;;;;;20.43;12.43;;;0.20;99.90;;;;;;6281150;28;20052;-81
2023/01/18 18:51:20;;;;;;;20.40;11.87;;;0.30;99.90;;;;;;6279271;28;20056;-79
2023/01/18 18:54:22;;;;;;;20.67;13.97;;;0.30;99.90;;;;;;6281729;28;20049;-79
2023/01/18 18:57:25;;;;;;;16.80;12.33;;;0.30;99.90;;;;;;6273940;28;20053;-79
2023/01/18 19:00:28;;;;;;;27.13;14.07;;;0.30;99.90;;;;;;6272726;28;20041;-78
2023/01/18 19:03:31;;;;;;;19.40;12.97;;;0.30;99.90;;;;;;6272984;28;20037;-78
2023/01/18 19:06:34;;;;;;;15.07;12.00;;;0.20;99.90;;;;;;6281548;28;20411;-78
2023/01/18 19:09:36;;;;;;;24.63;15.57;;;0.30;99.90;;;;;;6274972;28;20053;-79
2023/01/18 19:12:37;;;;;;;21.00;13.53;;;0.30;99.90;;;;;;6256520;28;20465;-79
2023/01/18 19:15:44;;;;;;;20.35;13.30;;;0.30;99.90;;;;;;6253503;28;20240;-79
2023/01/18 19:18:46;;;;;;;19.00;11.77;;;0.30;99.90;;;;;;6250368;28;20411;-79
2023/01/18 19:21:48;;;;;;;18.03;12.47;;;0.30;99.90;;;;;;6256097;28;20049;-79
2023/01/18 19:24:50;;;;;;;19.10;11.13;;;0.30;99.90;;;;;;6255446;28;20595;-79
2023/01/18 19:27:52;;;;;;;20.43;13.67;;;0.30;99.90;;;;;;6251244;28;20057;-79
2023/01/18 19:31:01;;;;;;;15.53;11.87;;;0.20;99.90;;;;;;6255928;28;20544;-79
2023/01/18 19:34:02;;;;;;;16.23;11.23;;;0.20;99.90;;;;;;6277229;28;20041;-80
2023/01/18 19:37:04;;;;;;;23.27;14.17;;;0.20;99.90;;;;;;6275784;28;20044;-79
2023/01/18 19:40:08;;;;;;;20.80;11.47;;;0.10;99.90;;;;;;6266783;28;20072;-80
2023/01/18 19:43:10;;;;;;;21.77;13.83;;;0.20;99.90;;;;;;6273410;28;20045;-78
2023/01/18 19:46:13;;;;;;;20.63;14.00;;;0.20;99.90;;;;;;6275307;28;20151;-79
2023/01/18 19:49:18;;;;;;;15.97;12.40;;;0.20;99.90;;;;;;6273671;28;20049;-80
2023/01/18 19:52:20;;;;;;;24.37;14.23;;;0.20;99.90;;;;;;6272968;28;20055;-79
2023/01/18 19:55:23;;;;;;;22.73;12.07;;;0.20;99.90;;;;;;6272758;28;20041;-79
2023/01/18 19:58:25;;;;;;;24.93;13.23;;;0.20;99.90;;;;;;6270415;28;20049;-79
2023/01/18 20:01:28;;;;;;;16.38;13.15;;;0.30;99.90;;;;;;6249125;28;20041;-79
2023/01/18 20:04:30;;;;;;;24.77;14.37;;;0.30;99.90;;;;;;6252512;28;20072;-78
2023/01/18 20:07:32;;;;;;;17.33;13.57;;;0.30;99.90;;;;;;6262854;28;20052;-81
2023/01/18 20:10:33;;;;;;;22.00;14.83;;;0.30;99.90;;;;;;6280222;28;20072;-82
2023/01/18 20:13:35;;;;;;;19.30;15.00;;;0.40;99.90;;;;;;6280780;28;20060;-80
2023/01/18 20:16:38;;;;;;;17.63;12.45;;;0.40;99.90;;;;;;6280894;28;20053;-79
2023/01/18 20:19:40;;;;;;;23.90;13.40;;;0.40;99.90;;;;;;6278981;28;20041;-79
2023/01/18 20:22:45;;;;;;;19.83;12.93;;;0.40;99.90;;;;;;6280277;28;20052;-80
2023/01/18 20:25:47;;;;;;;21.80;14.90;;;0.50;99.90;;;;;;6280571;28;20110;-79
2023/01/18 20:28:48;;;;;;;25.30;14.20;;;0.40;99.90;;;;;;6279161;28;20048;-80
2023/01/18 20:31:51;;;;;;;24.93;16.33;;;0.40;99.90;;;;;;6277122;28;20074;-81
2023/01/18 20:34:53;;;;;;;24.53;17.07;;;0.40;99.90;;;;;;6276381;28;20045;-80
2023/01/18 20:37:55;;;;;;;26.48;15.25;;;0.50;99.90;;;;;;6277753;28;20510;-80
2023/01/18 20:40:56;;;;;;;21.90;13.47;;;0.50;99.90;;;;;;6278202;28;20045;-80
2023/01/18 20:43:58;;;;;;;20.73;14.32;;;0.50;99.90;;;;;;6264714;28;20045;-80
2023/01/18 20:47:01;;;;;;;24.90;17.55;;;0.50;99.90;;;;;;6259964;28;20052;-80
2023/01/18 20:50:03;;;;;;;22.15;14.88;;;0.50;99.90;;;;;;6278302;28;20057;-80
2023/01/18 20:53:05;;;;;;;23.88;15.63;;;0.50;99.90;;;;;;6277288;28;20414;-79
2023/01/18 20:56:09;;;;;;;28.15;15.27;;;0.50;99.90;;;;;;6278379;28;20052;-79
2023/01/18 20:59:11;;;;;;;20.65;14.25;;;0.50;99.90;;;;;;6279228;28;20510;-80
2023/01/18 21:02:14;;;;;;;20.38;13.63;;;0.50;99.90;;;;;;6279664;28;20085;-80
2023/01/18 21:05:16;;;;;;;21.15;14.15;;;0.50;99.90;;;;;;6279947;28;20049;-80
2023/01/18 21:08:18;;;;;;;20.92;13.95;;;0.50;99.90;;;;;;6260777;28;20459;-79
2023/01/18 21:11:21;;;;;;;27.13;14.27;;;0.50;99.90;;;;;;6263185;28;20049;-81
2023/01/18 21:14:23;;;;;;;20.50;15.30;;;0.50;99.90;;;;;;6277825;28;20216;-79
2023/01/18 21:17:26;;;;;;;22.70;15.80;;;0.40;99.90;;;;;;6277409;28;20053;-81
2023/01/18 21:20:28;;;;;;;25.20;14.63;;;0.40;99.90;;;;;;6277324;28;20495;-82
2023/01/18 21:23:38;;;;;;;22.63;15.13;;;0.40;99.90;;;;;;6278292;28;20055;-78
2023/01/18 21:26:39;;;;;;;18.03;13.00;;;0.40;99.90;;;;;;6270799;28;20041;-78
2023/01/18 21:29:41;;;;;;;19.60;14.23;;;0.40;99.90;;;;;;6249240;28;20431;-78
2023/01/18 21:32:44;;;;;;;19.37;13.53;;;0.30;99.90;;;;;;6269783;28;20068;-78
2023/01/18 21:35:46;;;;;;;24.77;16.53;;;0.30;99.90;;;;;;6273705;28;20048;-78
2023/01/18 21:38:48;;;;;;;26.13;15.17;;;0.30;99.90;;;;;;6272421;28;20072;-78
2023/01/18 21:48:31;;;;;;;22.57;14.70;;;0.20;99.90;;;;;;6266819;28;20040;-77
2023/01/18 21:54:55;;;;;;;18.87;12.67;;;0.20;99.90;;;;;;6241694;28;20496;-77
2023/01/18 22:01:20;;;;;;;34.30;14.90;;;0.20;99.90;;;;;;6273599;28;20417;-78
2023/01/18 22:07:42;;;;;;;22.23;15.57;;;0.10;99.90;;;;;;6257373;28;20498;-78
2023/01/18 22:10:46;;;;;;;19.50;12.90;;;0.10;99.90;;;;;;6274126;28;20075;-78
2023/01/18 22:13:47;;;;;;;16.97;12.27;;;0.10;99.90;;;;;;6274794;28;20045;-78
2023/01/18 22:16:49;;;;;;;23.07;12.17;;;0.10;99.90;;;;;;6273534;28;20052;-78
2023/01/18 22:19:52;;;;;;;20.50;13.23;;;0.10;99.90;;;;;;6273095;28;20049;-78
2023/01/18 22:22:54;;;;;;;18.27;14.23;;;0.10;99.90;;;;;;6274020;28;20057;-78
2023/01/18 22:25:56;;;;;;;25.93;14.17;;;0.00;99.90;;;;;;6274002;28;20087;-78
2023/01/18 22:28:58;;;;;;;25.00;15.57;;;0.00;99.90;;;;;;6273712;28;20040;-78
2023/01/18 22:32:00;;;;;;;22.70;13.93;;;-0.10;99.90;;;;;;6274928;28;20045;-77
2023/01/18 22:35:03;;;;;;;18.67;14.53;;;-0.10;99.90;;;;;;6276536;28;20053;-77
2023/01/18 22:38:05;;;;;;;18.57;13.87;;;-0.10;99.90;;;;;;6274149;28;20056;-78
2023/01/18 22:41:09;;;;;;;22.07;15.03;;;-0.20;99.90;;;;;;6248746;28;20100;-78
2023/01/18 22:44:13;;;;;;;22.47;15.93;;;-0.20;99.90;;;;;;6249299;28;20045;-78
2023/01/18 22:47:15;;;;;;;23.67;14.57;;;-0.20;99.90;;;;;;6247873;28;20049;-78
2023/01/18 22:50:18;;;;;;;28.27;15.90;;;-0.20;99.90;;;;;;6248696;28;20630;-77
2023/01/18 22:53:20;;;;;;;23.13;15.33;;;-0.30;99.90;;;;;;6248279;28;20053;-78
2023/01/18 22:56:24;;;;;;;26.13;14.80;;;-0.30;99.90;;;;;;6265869;28;20049;-78
2023/01/18 22:59:26;;;;;;;19.67;14.37;;;-0.30;99.90;;;;;;6272533;28;20443;-79
2023/01/18 23:02:28;;;;;;;18.10;13.07;;;-0.30;99.90;;;;;;6271657;28;20045;-78
2023/01/18 23:05:31;;;;;;;22.33;13.53;;;-0.40;99.90;;;;;;6246731;28;20038;-78
2023/01/18 23:08:41;;;;;;;21.67;15.30;;;-0.40;99.90;;;;;;6246310;28;20407;-78
2023/01/18 23:11:43;;;;;;;19.93;13.63;;;-0.40;99.90;;;;;;6260613;28;20098;-78
2023/01/18 23:18:04;;;;;;;22.90;14.77;;;-0.40;99.90;;;;;;6271972;28;20053;-78
2023/01/18 23:21:08;;;;;;;20.70;12.57;;;-0.40;99.90;;;;;;6247754;28;20045;-77
2023/01/18 23:24:09;;;;;;;19.73;14.17;;;-0.40;99.90;;;;;;6263564;28;20041;-78
2023/01/18 23:27:11;;;;;;;28.40;13.67;;;-0.30;99.90;;;;;;6271544;28;20052;-77
2023/01/18 23:30:13;;;;;;;25.23;13.13;;;-0.20;99.90;;;;;;6270567;28;20048;-78
2023/01/18 23:33:15;;;;;;;19.60;14.40;;;-0.10;99.90;;;;;;6271324;28;20055;-77
2023/01/18 23:36:18;;;;;;;26.93;16.27;;;0.00;99.90;;;;;;6271046;28;20075;-78
2023/01/18 23:55:57;;;;;;;18.03;11.70;;;0.40;99.90;;;;;;6270751;28;20644;-77
2023/01/18 23:58:59;;;;;;;21.43;11.77;;;0.40;99.90;;;;;;6270504;28;20060;-78
